DFFD/OUA METAR and TAF weather

Enter ICAO airport designator
Station Type Date Time Source
DFFD METAR 2020/09/26 10:00 UTC NOAA

DFFD 261000Z 20009KT 180V250 CAVOK 29/22 Q1014 NOSIG


Station Type Date Time Source
DFFD Decoded METAR 2020/09/26 10:00 UTC NOAA

Ouagadougou, Burkina Faso (DFFD) 12-21N 001-31W 306M
Sep 26, 2020 - 06:00 AM EDT / 2020.09.26 1000 UTC
Wind: from the SSW (200 degrees) at 10 MPH (9 KT) (direction variable):0
Visibility: greater than 7 mile(s):0
Temperature: 84 F (29 C)
Dew Point: 71 F (22 C)
Relative Humidity: 65%
Pressure (altimeter): 29.94 in. Hg (1014 hPa)
ob: DFFD 261000Z 20009KT 180V250 CAVOK 29/22 Q1014 NOSIG
cycle: 10

Station Type Date Time Source
DFFD TAF 2020/09/26 06:21 UTC NOAA

TAF TAF DFFD 260500Z 2606/2712 20008KT 9999 SCT020 PROB40
TEMPO 2606/2609 BKN013
TEMPO 2612/2620 4000 TSRA BKN020 SCT033CB

Example: see airport list